Time;durP1;ratioP1;P1;durP2;ratioP2;P2;SDS_P1;SDS_P2;PMS_P1;PMS_P2;Temp;Humidity;BMP_temperature;BMP_pressure;BME280_temperature;BME280_humidity;BME280_pressure;Samples;Min_cycle;Max_cycle;Signal;HPM_P1;HPM_P2
2021/03/06 00:00:12;;;;;;;23.65;15.43;;;2.20;99.90;;;;;;5053843;28;20029;-75
2021/03/06 00:02:38;;;;;;;26.23;16.50;;;2.10;99.90;;;;;;5055105;28;20029;-75
2021/03/06 00:05:06;;;;;;;22.45;14.65;;;2.20;99.90;;;;;;5053646;28;20024;-75
2021/03/06 00:07:32;;;;;;;31.02;16.88;;;2.20;99.90;;;;;;5054938;28;20024;-75
2021/03/06 00:09:58;;;;;;;22.13;15.60;;;2.10;99.90;;;;;;5053824;28;20029;-75
2021/03/06 00:12:24;;;;;;;26.50;15.50;;;1.90;99.90;;;;;;5054928;28;20048;-75
2021/03/06 00:14:49;;;;;;;23.63;16.15;;;2.00;99.90;;;;;;5054562;28;20051;-75
2021/03/06 00:17:15;;;;;;;22.40;14.75;;;2.00;99.90;;;;;;5054820;28;20531;-75
2021/03/06 00:19:41;;;;;;;24.92;15.80;;;2.00;99.90;;;;;;5054818;28;20028;-75
2021/03/06 00:22:06;;;;;;;26.80;15.93;;;1.90;99.90;;;;;;5054853;28;20017;-75
2021/03/06 00:24:32;;;;;;;25.40;15.88;;;2.00;99.90;;;;;;5054578;28;20429;-75
2021/03/06 00:26:58;;;;;;;26.77;15.77;;;1.80;99.90;;;;;;5053477;28;20032;-75
2021/03/06 00:29:25;;;;;;;26.65;16.17;;;1.70;99.90;;;;;;5054588;28;20476;-75
2021/03/06 00:31:50;;;;;;;26.45;16.67;;;1.80;99.90;;;;;;5054603;28;20029;-74
2021/03/06 00:34:16;;;;;;;21.17;14.63;;;1.80;99.90;;;;;;5054461;28;20036;-75
2021/03/06 00:36:42;;;;;;;27.30;16.23;;;1.90;99.90;;;;;;5054265;28;20025;-75
2021/03/06 00:39:08;;;;;;;24.05;16.33;;;2.00;99.90;;;;;;5054444;28;20068;-75
2021/03/06 00:41:35;;;;;;;25.92;16.50;;;1.80;99.90;;;;;;5054398;28;20032;-75
2021/03/06 00:44:01;;;;;;;26.90;15.90;;;1.80;99.90;;;;;;5053247;28;20025;-75
2021/03/06 00:46:28;;;;;;;27.00;17.23;;;1.80;99.90;;;;;;5054297;28;20029;-75
2021/03/06 00:48:53;;;;;;;28.70;16.02;;;1.60;99.90;;;;;;5053010;28;20044;-74
2021/03/06 00:51:19;;;;;;;27.52;16.95;;;1.30;99.90;;;;;;5054325;28;20033;-74
2021/03/06 00:53:45;;;;;;;24.17;16.83;;;1.20;99.90;;;;;;5054477;28;20503;-74
2021/03/06 00:56:11;;;;;;;31.92;17.80;;;1.10;99.90;;;;;;5053952;28;20029;-75
2021/03/06 00:58:37;;;;;;;29.35;16.52;;;1.20;99.90;;;;;;5054415;28;20017;-75
2021/03/06 01:01:07;;;;;;;27.05;17.60;;;1.30;99.90;;;;;;5054754;28;20033;-74
2021/03/06 01:03:33;;;;;;;27.17;17.20;;;1.20;99.90;;;;;;5054682;28;20025;-75
2021/03/06 01:05:59;;;;;;;27.02;16.33;;;1.10;99.90;;;;;;5053825;28;20028;-75
2021/03/06 01:08:25;;;;;;;22.42;15.70;;;1.10;99.90;;;;;;5053946;28;20036;-75
2021/03/06 01:10:52;;;;;;;27.95;17.00;;;1.10;99.90;;;;;;5053932;28;20032;-75
2021/03/06 01:13:19;;;;;;;25.52;16.52;;;1.20;99.90;;;;;;5053989;28;20107;-75
2021/03/06 01:15:45;;;;;;;26.58;16.75;;;1.10;99.90;;;;;;5053392;28;20021;-75
2021/03/06 01:18:11;;;;;;;25.60;16.67;;;1.20;99.90;;;;;;5053613;28;20018;-74
2021/03/06 01:20:37;;;;;;;28.48;17.52;;;1.20;99.90;;;;;;5053391;28;20021;-75
2021/03/06 01:23:03;;;;;;;29.13;17.55;;;1.00;99.90;;;;;;5053559;28;20033;-75
2021/03/06 01:25:29;;;;;;;26.02;16.58;;;1.10;99.90;;;;;;5052303;28;20492;-75
2021/03/06 01:27:55;;;;;;;30.83;17.55;;;0.90;99.90;;;;;;5053434;28;20057;-74
2021/03/06 01:30:22;;;;;;;30.88;19.00;;;0.70;99.90;;;;;;5053456;28;20029;-74
2021/03/06 01:32:48;;;;;;;28.98;19.20;;;0.40;99.90;;;;;;5053387;28;20100;-75
2021/03/06 01:35:14;;;;;;;33.03;20.30;;;0.30;99.90;;;;;;5035292;28;20140;-75
2021/03/06 01:37:41;;;;;;;31.13;20.15;;;0.10;99.90;;;;;;5053117;28;20052;-75
2021/03/06 01:40:12;;;;;;;31.65;18.58;;;-0.10;99.90;;;;;;5051970;28;20028;-75
2021/03/06 01:42:39;;;;;;;33.00;18.35;;;-0.10;99.90;;;;;;5053224;28;20096;-75
2021/03/06 01:45:06;;;;;;;36.70;21.58;;;0.00;99.90;;;;;;5053027;28;20048;-75
2021/03/06 01:47:33;;;;;;;34.17;21.02;;;0.10;99.90;;;;;;5052845;28;20104;-74
2021/03/06 01:49:58;;;;;;;42.88;21.70;;;0.20;99.90;;;;;;5053180;28;20026;-75
2021/03/06 01:52:25;;;;;;;33.83;21.95;;;0.20;99.90;;;;;;5053093;28;20021;-76
2021/03/06 01:54:52;;;;;;;37.67;21.42;;;0.40;99.90;;;;;;5052970;28;20025;-76
2021/03/06 01:57:18;;;;;;;32.17;19.88;;;0.60;99.90;;;;;;5052927;28;20020;-76
2021/03/06 01:59:43;;;;;;;36.72;22.35;;;0.70;99.90;;;;;;5051611;28;20028;-76
2021/03/06 02:02:09;;;;;;;33.72;21.42;;;0.90;99.90;;;;;;5051451;28;20171;-75
2021/03/06 02:04:35;;;;;;;34.47;21.42;;;1.00;99.90;;;;;;5051477;28;20021;-75
2021/03/06 02:07:02;;;;;;;35.47;20.92;;;1.00;99.90;;;;;;5051823;28;20029;-75
2021/03/06 02:09:28;;;;;;;35.30;21.52;;;1.10;99.90;;;;;;5052577;28;20017;-76
2021/03/06 02:12:19;;;;;;;31.38;20.45;;;1.10;99.90;;;;;;5052588;28;20029;-76
2021/03/06 02:14:47;;;;;;;37.78;20.15;;;0.90;99.90;;;;;;5052265;28;20056;-75
2021/03/06 02:17:32;;;;;;;32.38;19.38;;;1.00;99.90;;;;;;5052378;28;20061;-76
2021/03/06 02:20:38;;;;;;;30.15;19.20;;;1.10;99.90;;;;;;5051237;28;20511;-76
2021/03/06 02:23:16;;;;;;;38.53;21.75;;;1.00;99.90;;;;;;5052491;28;20028;-75
2021/03/06 02:25:54;;;;;;;31.88;19.38;;;0.90;99.90;;;;;;5052232;28;20024;-76
2021/03/06 02:28:57;;;;;;;29.88;18.25;;;0.90;99.90;;;;;;5052379;28;20036;-76
2021/03/06 02:31:25;;;;;;;31.17;18.83;;;1.20;99.90;;;;;;5052377;28;20100;-76
2021/03/06 02:34:00;;;;;;;30.00;19.23;;;1.10;99.90;;;;;;5052168;28;20048;-75
2021/03/06 02:36:27;;;;;;;30.85;17.42;;;0.90;99.90;;;;;;5052076;28;20028;-76
2021/03/06 02:38:56;;;;;;;31.98;17.88;;;0.90;99.90;;;;;;5051012;28;20020;-76
2021/03/06 02:41:26;;;;;;;30.63;18.95;;;1.00;99.90;;;;;;5052154;28;20484;-76
2021/03/06 02:43:52;;;;;;;30.40;18.20;;;1.00;99.90;;;;;;5052038;28;20025;-76
2021/03/06 02:46:22;;;;;;;28.25;18.55;;;1.10;99.90;;;;;;5051959;28;20036;-76
2021/03/06 02:48:49;;;;;;;33.33;18.60;;;1.20;99.90;;;;;;5051969;28;20501;-76
2021/03/06 02:51:15;;;;;;;31.90;19.63;;;1.20;99.90;;;;;;5052104;28;20049;-76
2021/03/06 02:53:41;;;;;;;29.77;18.90;;;1.10;99.90;;;;;;5051810;28;20021;-75
2021/03/06 02:56:07;;;;;;;29.02;16.90;;;1.10;99.90;;;;;;5051868;28;20495;-76
2021/03/06 02:59:04;;;;;;;32.10;18.17;;;1.20;99.90;;;;;;5051778;28;20029;-75
2021/03/06 03:01:49;;;;;;;35.47;18.05;;;1.20;99.90;;;;;;5051907;28;20041;-76
2021/03/06 03:04:17;;;;;;;27.83;17.48;;;1.20;99.90;;;;;;5052101;28;20033;-76
2021/03/06 03:06:46;;;;;;;30.27;17.98;;;1.20;99.90;;;;;;5051667;28;20032;-76
2021/03/06 03:09:23;;;;;;;28.02;17.67;;;1.10;99.90;;;;;;5050670;28;20075;-75
2021/03/06 03:12:14;;;;;;;28.17;18.15;;;1.10;99.90;;;;;;5051930;28;20108;-76
2021/03/06 03:15:11;;;;;;;26.77;16.70;;;1.10;99.90;;;;;;5033625;28;20493;-76
2021/03/06 03:17:40;;;;;;;28.95;16.85;;;1.20;99.90;;;;;;5039870;28;20029;-74
2021/03/06 03:20:32;;;;;;;28.95;18.48;;;1.30;99.90;;;;;;5054585;28;20383;-74
2021/03/06 03:23:20;;;;;;;26.65;17.38;;;1.30;99.90;;;;;;5055918;28;20017;-76
2021/03/06 03:25:48;;;;;;;25.67;16.73;;;1.30;99.90;;;;;;5055590;28;20040;-76
2021/03/06 03:28:15;;;;;;;26.15;17.42;;;1.20;99.90;;;;;;5055678;28;20067;-76
2021/03/06 03:30:41;;;;;;;33.10;18.35;;;1.10;99.90;;;;;;5054490;28;20065;-76
2021/03/06 03:33:10;;;;;;;31.80;19.02;;;1.00;99.90;;;;;;5055530;28;20078;-74
2021/03/06 03:35:39;;;;;;;28.38;18.73;;;1.10;99.90;;;;;;5055611;28;20375;-74
2021/03/06 03:38:06;;;;;;;32.28;18.52;;;1.10;99.90;;;;;;5054162;28;20036;-74
2021/03/06 03:40:33;;;;;;;28.10;18.10;;;1.10;99.90;;;;;;5055533;28;20082;-74
2021/03/06 03:43:00;;;;;;;28.90;18.38;;;1.10;99.90;;;;;;5055382;28;20029;-75
2021/03/06 03:45:27;;;;;;;32.08;18.17;;;1.10;99.90;;;;;;5053925;28;20032;-76
2021/03/06 03:47:53;;;;;;;28.95;18.38;;;1.10;99.90;;;;;;5053872;28;20032;-76
2021/03/06 03:50:19;;;;;;;28.65;18.33;;;1.20;99.90;;;;;;5055586;28;20504;-74
2021/03/06 03:52:50;;;;;;;29.00;18.80;;;1.30;99.90;;;;;;5055240;28;20485;-75
2021/03/06 03:55:17;;;;;;;31.63;18.98;;;1.20;99.90;;;;;;5055220;28;20357;-75
2021/03/06 03:57:46;;;;;;;33.92;21.88;;;1.00;99.90;;;;;;5054873;28;20032;-76
2021/03/06 04:00:15;;;;;;;33.53;21.95;;;0.90;99.90;;;;;;5063331;23;20034;-72
2021/03/06 04:02:41;;;;;;;37.60;20.60;;;0.80;99.90;;;;;;5034128;28;20025;-72
2021/03/06 04:05:09;;;;;;;34.13;20.30;;;0.90;99.90;;;;;;5035046;28;20022;-73
2021/03/06 04:08:00;;;;;;;33.10;20.98;;;0.90;99.90;;;;;;5034824;28;20033;-73
2021/03/06 04:10:27;;;;;;;31.45;19.27;;;1.00;99.90;;;;;;5030885;28;20056;-73
2021/03/06 04:12:55;;;;;;;35.63;21.48;;;1.00;99.90;;;;;;5034718;28;20080;-73
2021/03/06 04:15:23;;;;;;;32.60;20.33;;;1.00;99.90;;;;;;5034672;28;20032;-73
2021/03/06 04:17:50;;;;;;;32.15;20.70;;;0.90;99.90;;;;;;5034623;28;20025;-73
2021/03/06 04:20:19;;;;;;;35.05;21.55;;;0.80;99.90;;;;;;5034696;28;20477;-73
2021/03/06 04:22:45;;;;;;;31.90;20.77;;;0.80;99.90;;;;;;5034516;28;20025;-73
2021/03/06 04:25:12;;;;;;;33.25;20.13;;;0.70;99.90;;;;;;5034509;28;20076;-73
2021/03/06 04:27:39;;;;;;;35.80;21.13;;;0.70;99.90;;;;;;5034503;28;20033;-73
2021/03/06 04:30:07;;;;;;;35.10;22.00;;;0.60;99.90;;;;;;5033907;28;20045;-73
2021/03/06 04:32:33;;;;;;;34.72;20.30;;;0.50;99.90;;;;;;5033466;28;20014;-73
2021/03/06 04:34:59;;;;;;;37.00;21.63;;;0.30;99.90;;;;;;5034348;28;20056;-73
2021/03/06 04:37:25;;;;;;;33.88;21.08;;;0.40;99.90;;;;;;5034264;28;20323;-73
2021/03/06 04:39:51;;;;;;;33.05;20.45;;;0.40;99.90;;;;;;5034519;28;20033;-73
2021/03/06 04:42:17;;;;;;;32.05;19.13;;;0.50;99.90;;;;;;5032887;28;20074;-72
2021/03/06 04:44:43;;;;;;;28.92;18.45;;;0.60;99.90;;;;;;5032998;28;20097;-73
2021/03/06 04:47:08;;;;;;;33.03;20.42;;;0.40;99.90;;;;;;5033946;28;20056;-73
2021/03/06 04:49:35;;;;;;;31.65;19.63;;;0.30;99.90;;;;;;5034152;28;20139;-72
2021/03/06 04:52:00;;;;;;;34.78;18.65;;;0.40;99.90;;;;;;5034424;28;20021;-72
2021/03/06 04:54:27;;;;;;;38.08;21.73;;;0.50;99.90;;;;;;5034008;28;20028;-72
2021/03/06 04:56:53;;;;;;;35.17;20.92;;;0.50;99.90;;;;;;5034157;28;20132;-72
2021/03/06 04:59:19;;;;;;;33.53;20.10;;;0.60;99.90;;;;;;5032629;28;20476;-72
2021/03/06 05:01:44;;;;;;;37.13;22.42;;;0.50;99.90;;;;;;5033911;28;20497;-72
2021/03/06 05:04:10;;;;;;;34.45;21.60;;;0.60;99.90;;;;;;5032381;28;20053;-72
2021/03/06 05:06:36;;;;;;;36.08;20.10;;;0.60;99.90;;;;;;5032414;28;20023;-72
2021/03/06 05:09:03;;;;;;;32.70;19.65;;;0.50;99.90;;;;;;5032410;28;20040;-72
2021/03/06 05:11:29;;;;;;;35.33;20.05;;;0.50;99.90;;;;;;5033809;28;20095;-72
2021/03/06 05:13:55;;;;;;;37.67;21.58;;;0.50;99.90;;;;;;5033536;28;20065;-72
2021/03/06 05:16:20;;;;;;;34.20;20.70;;;0.50;99.90;;;;;;5033386;28;20092;-72
2021/03/06 05:18:46;;;;;;;32.70;20.75;;;0.30;99.90;;;;;;5032198;28;20040;-74
2021/03/06 05:21:12;;;;;;;36.80;20.85;;;0.20;99.90;;;;;;5033516;28;20032;-74
2021/03/06 05:23:37;;;;;;;30.58;20.58;;;0.20;99.90;;;;;;5033444;28;20104;-72
2021/03/06 05:26:03;;;;;;;38.17;20.35;;;0.10;99.90;;;;;;5033308;28;20034;-75
2021/03/06 05:28:29;;;;;;;34.10;22.30;;;0.00;99.90;;;;;;5033294;28;20022;-73
2021/03/06 05:30:55;;;;;;;33.88;20.67;;;-0.10;99.90;;;;;;5033319;28;20057;-72
2021/03/06 05:33:21;;;;;;;32.47;19.98;;;0.00;99.90;;;;;;5032016;28;20444;-73
2021/03/06 05:35:46;;;;;;;29.75;18.60;;;0.20;99.90;;;;;;5033203;28;20076;-73
2021/03/06 05:38:12;;;;;;;32.05;19.08;;;0.40;99.90;;;;;;5033154;28;20481;-73
2021/03/06 05:40:44;;;;;;;32.40;19.88;;;0.40;99.90;;;;;;5033209;28;20079;-73
2021/03/06 05:43:10;;;;;;;32.45;20.00;;;0.40;99.90;;;;;;5030886;28;20027;-73
2021/03/06 05:45:36;;;;;;;28.25;17.58;;;0.60;99.90;;;;;;5031578;28;20427;-73
2021/03/06 05:48:02;;;;;;;30.17;19.50;;;0.70;99.90;;;;;;5032846;28;20025;-73
2021/03/06 05:50:29;;;;;;;30.75;18.13;;;0.60;99.90;;;;;;5033061;28;20469;-73
2021/03/06 05:52:59;;;;;;;30.00;19.00;;;0.50;99.90;;;;;;5032901;28;20465;-72
2021/03/06 05:55:27;;;;;;;41.47;19.75;;;0.40;99.90;;;;;;5032930;28;20103;-73
2021/03/06 05:57:56;;;;;;;29.95;18.67;;;0.20;99.90;;;;;;5032913;28;20029;-74
2021/03/06 06:00:23;;;;;;;30.17;19.48;;;0.20;99.90;;;;;;5032589;28;20481;-74
2021/03/06 06:02:54;;;;;;;30.42;19.23;;;0.10;99.90;;;;;;5032704;28;20392;-74
2021/03/06 06:05:20;;;;;;;30.70;18.95;;;0.10;99.90;;;;;;5032584;28;20029;-74
2021/03/06 06:07:47;;;;;;;30.42;17.77;;;0.10;99.90;;;;;;5032569;28;20075;-74
2021/03/06 06:10:13;;;;;;;31.75;18.50;;;0.00;99.90;;;;;;5032563;28;20030;-74
2021/03/06 06:12:45;;;;;;;26.65;16.42;;;0.00;99.90;;;;;;5032490;28;20496;-75
2021/03/06 06:15:12;;;;;;;25.02;16.13;;;0.10;99.90;;;;;;5032158;28;20041;-74
2021/03/06 06:17:38;;;;;;;25.23;16.58;;;0.20;99.90;;;;;;5031241;28;20025;-74
2021/03/06 06:20:05;;;;;;;27.88;16.67;;;0.20;99.90;;;;;;5032364;28;20072;-74
2021/03/06 06:22:31;;;;;;;28.27;16.35;;;0.10;99.90;;;;;;5032300;28;20029;-74
2021/03/06 06:24:56;;;;;;;25.30;16.27;;;0.20;99.90;;;;;;5032130;28;20025;-74
2021/03/06 06:27:30;;;;;;;26.35;15.35;;;0.30;99.90;;;;;;5032406;28;20381;-74
2021/03/06 06:29:59;;;;;;;25.13;14.93;;;0.40;99.90;;;;;;5032185;28;20029;-74
2021/03/06 06:32:40;;;;;;;25.08;16.85;;;0.40;99.90;;;;;;5032286;28;20036;-74
2021/03/06 06:35:09;;;;;;;30.10;16.15;;;0.20;99.90;;;;;;5032036;28;20020;-74
2021/03/06 06:37:35;;;;;;;22.83;15.05;;;0.10;99.90;;;;;;5032136;28;20389;-73
2021/03/06 06:40:18;;;;;;;22.08;14.80;;;0.00;99.90;;;;;;5031960;28;20025;-74
2021/03/06 06:42:44;;;;;;;27.38;14.70;;;0.10;99.90;;;;;;5032185;28;20465;-74
2021/03/06 06:45:11;;;;;;;22.25;13.70;;;0.40;99.90;;;;;;5031762;28;20123;-74
2021/03/06 06:47:48;;;;;;;20.90;12.20;;;0.50;99.90;;;;;;5031899;28;20037;-74
2021/03/06 06:50:26;;;;;;;21.25;13.45;;;0.30;99.90;;;;;;5031960;28;20110;-74
2021/03/06 06:52:52;;;;;;;24.77;14.00;;;0.30;99.90;;;;;;5030517;28;20045;-74
2021/03/06 06:55:18;;;;;;;19.45;13.30;;;0.40;99.90;;;;;;5030521;28;20430;-74
2021/03/06 06:57:56;;;;;;;22.60;13.35;;;0.50;99.90;;;;;;5032421;28;20373;-74
2021/03/06 07:00:22;;;;;;;24.02;13.43;;;0.50;99.90;;;;;;5031746;28;20060;-75
2021/03/06 07:02:52;;;;;;;27.83;12.27;;;0.50;99.90;;;;;;5031837;28;20103;-74
2021/03/06 07:05:29;;;;;;;22.20;12.77;;;0.50;99.90;;;;;;5030119;28;20067;-74
2021/03/06 07:07:55;;;;;;;22.75;12.93;;;0.50;99.90;;;;;;5031716;28;20083;-74
2021/03/06 07:10:22;;;;;;;22.17;14.13;;;0.50;99.90;;;;;;5031672;28;20025;-74
2021/03/06 07:12:57;;;;;;;20.27;11.05;;;0.50;99.90;;;;;;5030400;28;20083;-74
2021/03/06 07:15:23;;;;;;;20.75;13.23;;;0.60;99.90;;;;;;5030054;28;20017;-74
2021/03/06 07:17:52;;;;;;;18.17;12.30;;;0.50;99.90;;;;;;5030448;28;20026;-74
2021/03/06 07:20:23;;;;;;;18.95;11.43;;;0.50;99.90;;;;;;5031651;28;20022;-75
2021/03/06 07:22:50;;;;;;;18.77;12.18;;;0.20;99.90;;;;;;5030613;28;20030;-74
2021/03/06 07:25:16;;;;;;;22.08;12.85;;;0.50;99.90;;;;;;5031365;28;20559;-74
2021/03/06 07:27:43;;;;;;;23.17;13.45;;;0.40;99.90;;;;;;5031533;28;20041;-74
2021/03/06 07:30:13;;;;;;;33.33;13.48;;;0.20;99.90;;;;;;5030195;28;20072;-74
2021/03/06 07:32:41;;;;;;;21.00;12.43;;;0.30;99.90;;;;;;5031701;28;20377;-74
2021/03/06 07:35:13;;;;;;;18.85;11.68;;;0.50;99.90;;;;;;5031219;28;20381;-74
2021/03/06 07:37:40;;;;;;;18.40;11.57;;;0.40;99.90;;;;;;5031544;28;20033;-74
2021/03/06 07:40:08;;;;;;;21.00;12.57;;;0.60;99.90;;;;;;5031349;28;20033;-74
2021/03/06 07:42:47;;;;;;;18.98;11.93;;;0.60;99.90;;;;;;5031514;28;20027;-74
2021/03/06 07:45:20;;;;;;;18.58;11.05;;;0.50;99.90;;;;;;5031312;28;20088;-74
2021/03/06 07:47:49;;;;;;;19.88;11.57;;;0.30;99.90;;;;;;5030145;28;20091;-74
2021/03/06 07:50:28;;;;;;;17.25;10.60;;;0.10;99.90;;;;;;5013660;28;20022;-74
2021/03/06 07:52:56;;;;;;;18.92;11.40;;;0.30;99.90;;;;;;5031416;28;20492;-74
2021/03/06 07:55:26;;;;;;;18.50;12.13;;;0.40;99.90;;;;;;5031288;28;20025;-74
2021/03/06 07:58:12;;;;;;;19.55;12.45;;;0.40;99.90;;;;;;5029907;28;20109;-74
2021/03/06 08:00:53;;;;;;;21.77;12.23;;;0.50;99.90;;;;;;5031288;28;20032;-74
2021/03/06 08:03:33;;;;;;;38.10;14.45;;;0.40;99.90;;;;;;5028575;28;20036;-74
2021/03/06 08:06:00;;;;;;;24.27;12.93;;;0.50;99.90;;;;;;5013108;28;20034;-74
2021/03/06 08:08:32;;;;;;;17.98;12.05;;;0.40;99.90;;;;;;5033415;28;20107;-74
2021/03/06 08:11:09;;;;;;;31.63;13.32;;;0.50;99.90;;;;;;5033288;28;20081;-74
2021/03/06 08:13:54;;;;;;;21.38;13.05;;;0.50;99.90;;;;;;5013806;28;20030;-74
2021/03/06 08:16:23;;;;;;;22.67;13.25;;;0.60;99.90;;;;;;5014603;28;20485;-74
2021/03/06 08:18:52;;;;;;;18.30;12.20;;;0.50;99.90;;;;;;5014657;28;20028;-74
2021/03/06 08:21:34;;;;;;;21.23;12.48;;;0.70;99.90;;;;;;5029264;28;20053;-74
2021/03/06 08:24:15;;;;;;;;;;;0.80;99.90;;;;;;5033724;28;20029;-74
2021/03/06 08:26:53;;;;;;;27.73;14.07;;;0.90;99.90;;;;;;5033922;28;19955;-74
2021/03/06 08:29:25;;;;;;;33.60;13.38;;;0.80;99.90;;;;;;5034313;28;20378;-74
2021/03/06 08:32:06;;;;;;;32.00;15.25;;;0.70;99.90;;;;;;5032993;28;20101;-74
2021/03/06 08:34:45;;;;;;;25.00;15.17;;;0.60;99.90;;;;;;5016433;28;20515;-74
2021/03/06 08:37:14;;;;;;;25.77;15.45;;;0.60;99.90;;;;;;5026898;28;20369;-74
2021/03/06 08:39:50;;;;;;;25.95;14.48;;;0.80;99.90;;;;;;5012998;28;20029;-74
2021/03/06 08:42:27;;;;;;;26.13;15.18;;;0.70;99.90;;;;;;4996735;28;20084;-74
2021/03/06 08:44:54;;;;;;;27.17;14.60;;;0.80;99.90;;;;;;5014033;28;20040;-74
2021/03/06 08:47:32;;;;;;;23.67;15.25;;;0.60;99.90;;;;;;5014101;28;20018;-74
2021/03/06 08:50:00;;;;;;;23.15;15.15;;;0.70;99.90;;;;;;5014076;28;20033;-74
2021/03/06 08:52:28;;;;;;;24.70;14.13;;;0.70;99.90;;;;;;5014089;28;20457;-74
2021/03/06 08:54:54;;;;;;;26.50;15.20;;;0.80;99.90;;;;;;5013688;28;20052;-74
2021/03/06 08:57:24;;;;;;;27.77;14.88;;;1.00;99.90;;;;;;5025653;28;20101;-74
2021/03/06 08:59:51;;;;;;;29.30;14.85;;;1.20;99.90;;;;;;5033652;28;20551;-74
2021/03/06 09:02:19;;;;;;;29.75;15.40;;;1.30;99.90;;;;;;5032377;28;20112;-74
2021/03/06 09:04:45;;;;;;;23.75;15.82;;;1.30;99.90;;;;;;5032204;28;20033;-73
2021/03/06 09:07:23;;;;;;;22.77;15.25;;;1.30;99.90;;;;;;5033378;28;20362;-74
2021/03/06 09:09:49;;;;;;;24.92;15.27;;;1.40;99.90;;;;;;5015809;28;20091;-74
2021/03/06 09:12:15;;;;;;;21.95;14.70;;;1.40;99.90;;;;;;5033170;28;20033;-74
2021/03/06 09:14:41;;;;;;;21.77;14.00;;;1.60;99.90;;;;;;5033180;28;20032;-74
2021/03/06 09:17:10;;;;;;;24.48;15.52;;;1.60;99.90;;;;;;5033090;28;20113;-74
2021/03/06 09:19:36;;;;;;;26.63;15.43;;;1.50;99.60;;;;;;5033438;28;20078;-73
2021/03/06 09:22:05;;;;;;;22.42;15.25;;;1.60;99.90;;;;;;5029248;28;20375;-74
2021/03/06 09:24:50;;;;;;;21.25;14.07;;;1.90;99.90;;;;;;5024454;28;20459;-74
2021/03/06 09:27:17;;;;;;;29.15;14.40;;;2.20;98.40;;;;;;5016870;28;20037;-74
2021/03/06 09:29:44;;;;;;;35.53;13.88;;;2.50;96.40;;;;;;5013012;28;20489;-74
2021/03/06 09:32:11;;;;;;;23.70;14.68;;;2.60;96.00;;;;;;5031617;28;20030;-74
2021/03/06 09:34:38;;;;;;;21.90;13.50;;;2.70;96.00;;;;;;5015165;28;20367;-73
2021/03/06 09:37:15;;;;;;;19.75;12.48;;;3.10;94.80;;;;;;5032598;28;20029;-73
2021/03/06 09:39:40;;;;;;;22.00;13.48;;;3.50;92.00;;;;;;5031818;28;20104;-73
2021/03/06 09:42:07;;;;;;;17.50;12.85;;;4.00;91.50;;;;;;5032643;28;20100;-74
2021/03/06 09:44:33;;;;;;;26.58;12.13;;;4.10;89.20;;;;;;5032768;28;20109;-73
2021/03/06 09:47:00;;;;;;;34.65;12.38;;;4.40;86.80;;;;;;5032796;28;20075;-75
2021/03/06 09:49:34;;;;;;;16.08;11.02;;;4.40;84.90;;;;;;5032796;28;20030;-73
2021/03/06 09:52:00;;;;;;;15.70;11.25;;;4.90;84.50;;;;;;5032767;28;20031;-73
2021/03/06 09:54:26;;;;;;;34.47;12.10;;;5.10;82.00;;;;;;5032027;28;20405;-73
2021/03/06 09:56:56;;;;;;;19.45;11.48;;;5.20;82.20;;;;;;5031513;28;20033;-73
2021/03/06 09:59:24;;;;;;;22.88;11.57;;;5.80;79.80;;;;;;5032899;28;20021;-74
2021/03/06 10:01:50;;;;;;;19.67;11.40;;;6.20;77.50;;;;;;5059627;22;20152;-76
2021/03/06 10:04:23;;;;;;;13.15;10.32;;;6.30;76.10;;;;;;5052494;28;20450;-75
2021/03/06 10:06:51;;;;;;;18.88;10.38;;;6.80;74.30;;;;;;5051151;28;20024;-75
2021/03/06 10:09:18;;;;;;;18.65;12.90;;;6.90;72.60;;;;;;5052349;28;20192;-75
2021/03/06 10:11:46;;;;;;;17.05;10.23;;;7.20;71.80;;;;;;5042853;28;20048;-76
2021/03/06 10:14:17;;;;;;;21.80;10.38;;;6.80;71.10;;;;;;5032550;28;20049;-75
2021/03/06 10:16:43;;;;;;;19.55;9.35;;;6.90;71.50;;;;;;5032514;28;20028;-75
2021/03/06 10:19:09;;;;;;;14.38;10.40;;;7.10;71.30;;;;;;5014471;28;20112;-76
2021/03/06 10:21:35;;;;;;;11.50;9.65;;;7.70;71.00;;;;;;5032099;28;20025;-75
2021/03/06 10:24:03;;;;;;;25.83;11.25;;;8.20;70.00;;;;;;5032200;28;20029;-75
2021/03/06 10:26:29;;;;;;;14.23;9.95;;;8.70;65.90;;;;;;5030969;28;20029;-76
2021/03/06 10:29:00;;;;;;;14.85;10.70;;;8.80;66.20;;;;;;5030538;28;20096;-76
2021/03/06 10:31:27;;;;;;;16.08;9.75;;;8.70;65.50;;;;;;5030962;28;20021;-76
2021/03/06 10:33:53;;;;;;;12.80;9.52;;;9.00;65.20;;;;;;5030980;28;20101;-76
2021/03/06 10:36:18;;;;;;;16.13;9.70;;;9.20;65.90;;;;;;5030751;28;20112;-75
2021/03/06 10:38:44;;;;;;;15.68;9.55;;;9.50;66.80;;;;;;5032204;28;20093;-76
2021/03/06 10:41:18;;;;;;;17.52;10.10;;;9.90;64.70;;;;;;5014486;28;20032;-75
2021/03/06 10:43:52;;;;;;;16.63;10.10;;;10.10;62.30;;;;;;5014073;28;20436;-75
2021/03/06 10:46:26;;;;;;;21.98;9.52;;;9.50;64.50;;;;;;5032019;28;20029;-76
2021/03/06 10:48:57;;;;;;;27.20;10.98;;;9.70;64.90;;;;;;5031913;28;20018;-75
2021/03/06 10:51:39;;;;;;;21.05;10.45;;;9.40;64.60;;;;;;5032156;28;20025;-76
2021/03/06 10:54:06;;;;;;;17.02;9.52;;;9.30;64.40;;;;;;5032114;28;20289;-76
2021/03/06 10:56:33;;;;;;;13.77;9.93;;;9.80;61.40;;;;;;5030667;28;20026;-76
2021/03/06 10:58:59;;;;;;;16.90;9.32;;;9.50;62.10;;;;;;5044768;28;20029;-75
2021/03/06 11:01:25;;;;;;;39.05;12.55;;;9.40;58.30;;;;;;5047436;28;20041;-75
2021/03/06 11:03:51;;;;;;;16.38;9.95;;;9.70;61.50;;;;;;5037813;28;20047;-76
2021/03/06 11:06:19;;;;;;;41.63;11.13;;;10.70;60.00;;;;;;5042373;28;20042;-76
2021/03/06 11:09:03;;;;;;;17.85;9.70;;;11.30;58.90;;;;;;5030339;28;20057;-75
2021/03/06 11:11:29;;;;;;;15.25;9.32;;;11.20;59.40;;;;;;5031938;28;20155;-76
2021/03/06 11:13:55;;;;;;;12.02;9.70;;;11.50;57.30;;;;;;5030429;28;20076;-76
2021/03/06 11:16:38;;;;;;;28.48;10.73;;;11.80;57.00;;;;;;5031609;28;20052;-76
2021/03/06 11:19:04;;;;;;;24.48;9.40;;;11.50;56.50;;;;;;5031561;28;20500;-75
2021/03/06 11:21:30;;;;;;;18.02;10.13;;;10.50;57.60;;;;;;5031740;28;20021;-76
2021/03/06 11:23:56;;;;;;;13.50;10.27;;;9.10;60.00;;;;;;5031615;28;20032;-75
2021/03/06 11:26:21;;;;;;;13.15;8.82;;;9.00;62.00;;;;;;5030362;28;20029;-76
2021/03/06 11:28:47;;;;;;;12.25;9.70;;;9.70;58.90;;;;;;5031544;28;20538;-75
2021/03/06 11:31:13;;;;;;;13.40;8.93;;;9.70;57.70;;;;;;5032560;28;20072;-75
2021/03/06 11:33:39;;;;;;;14.00;9.35;;;9.60;59.30;;;;;;5032132;28;20045;-75
2021/03/06 11:36:05;;;;;;;16.95;9.23;;;9.90;58.60;;;;;;5013721;28;20026;-75
2021/03/06 11:38:30;;;;;;;14.68;10.48;;;10.00;58.60;;;;;;5031191;28;20067;-75
2021/03/06 11:40:57;;;;;;;11.27;9.27;;;9.60;58.40;;;;;;5033207;28;20072;-76
2021/03/06 11:43:23;;;;;;;16.70;10.38;;;9.70;59.80;;;;;;5034070;28;20032;-75
2021/03/06 11:45:48;;;;;;;11.77;8.27;;;9.60;59.70;;;;;;5035097;28;20131;-75
2021/03/06 11:48:14;;;;;;;22.73;9.88;;;10.20;58.10;;;;;;5035044;28;20041;-75
2021/03/06 11:50:48;;;;;;;22.02;9.23;;;10.40;56.10;;;;;;5034687;28;20033;-75
2021/03/06 11:53:14;;;;;;;11.10;8.77;;;10.20;56.70;;;;;;5035144;28;20022;-76
2021/03/06 11:55:41;;;;;;;16.92;8.57;;;9.60;57.90;;;;;;5034964;28;20026;-75
2021/03/06 11:58:07;;;;;;;21.38;10.85;;;9.60;58.40;;;;;;5034951;28;20030;-75
2021/03/06 12:00:34;;;;;;;12.73;8.90;;;9.90;59.00;;;;;;5033605;28;20458;-76
2021/03/06 12:03:00;;;;;;;11.60;8.35;;;10.50;57.40;;;;;;5035143;28;20049;-75
2021/03/06 12:05:26;;;;;;;11.35;8.55;;;11.10;56.40;;;;;;5033568;28;20053;-76
2021/03/06 12:07:52;;;;;;;15.73;9.85;;;11.20;54.70;;;;;;5034791;28;20522;-76
2021/03/06 12:10:20;;;;;;;42.42;11.50;;;11.00;54.60;;;;;;5034947;28;20017;-76
2021/03/06 12:12:46;;;;;;;14.02;9.70;;;10.00;58.10;;;;;;5033447;28;20029;-75
2021/03/06 12:15:14;;;;;;;22.05;8.45;;;10.50;58.30;;;;;;5034728;28;20075;-75
2021/03/06 12:17:40;;;;;;;16.45;9.65;;;11.20;57.10;;;;;;5034593;28;20022;-76
2021/03/06 12:20:07;;;;;;;15.95;8.80;;;11.80;55.00;;;;;;5033726;28;20022;-76
2021/03/06 12:22:33;;;;;;;12.63;9.80;;;11.80;54.70;;;;;;5033363;28;20435;-75
2021/03/06 12:24:59;;;;;;;12.77;9.05;;;10.90;55.10;;;;;;5034504;28;20045;-76
2021/03/06 12:27:25;;;;;;;30.27;11.48;;;10.30;56.60;;;;;;5033226;28;20049;-76
2021/03/06 12:29:51;;;;;;;20.30;9.77;;;10.80;56.80;;;;;;5034582;28;20362;-75
2021/03/06 12:32:16;;;;;;;12.85;8.52;;;10.70;56.20;;;;;;5034567;28;20060;-75
2021/03/06 12:34:42;;;;;;;13.02;9.45;;;10.90;56.10;;;;;;5033205;28;20014;-75
2021/03/06 12:37:08;;;;;;;13.60;9.77;;;10.90;55.10;;;;;;5034344;28;20492;-76
2021/03/06 12:39:34;;;;;;;12.30;9.38;;;11.10;55.00;;;;;;5034505;28;20032;-75
2021/03/06 12:42:00;;;;;;;11.00;7.90;;;11.50;54.20;;;;;;5033192;28;20039;-75
2021/03/06 12:44:26;;;;;;;11.85;8.73;;;11.50;52.80;;;;;;5034190;28;20044;-72
2021/03/06 12:46:52;;;;;;;13.00;9.40;;;11.70;51.90;;;;;;5032894;28;20041;-74